Time;durP1;ratioP1;P1;durP2;ratioP2;P2;SDS_P1;SDS_P2;PMS_P1;PMS_P2;Temp;Humidity;BMP_temperature;BMP_pressure;BME280_temperature;BME280_humidity;BME280_pressure;Samples;Min_cycle;Max_cycle;Signal;HPM_P1;HPM_P2
2023/03/28 00:01:22;;;;;;;4.07;1.23;;;2.60;1.00;;;;;;5066453;28;20208;-81
2023/03/28 00:03:51;;;;;;;1.25;1.15;;;2.60;1.00;;;;;;5062499;28;20219;-81
2023/03/28 00:06:19;;;;;;;3.33;2.17;;;1.90;1.00;;;;;;5063707;28;20203;-81
2023/03/28 00:08:46;;;;;;;0.98;0.90;;;1.70;1.00;;;;;;5062908;28;20257;-81
2023/03/28 00:11:18;;;;;;;2.08;0.80;;;1.30;1.00;;;;;;5061398;28;20214;-82
2023/03/28 00:13:46;;;;;;;1.60;0.80;;;1.10;99.90;;;;;;5062545;28;20215;-81
2023/03/28 00:16:13;;;;;;;1.45;1.10;;;0.90;1.00;;;;;;5058663;28;20214;-82
2023/03/28 00:18:41;;;;;;;0.95;0.95;;;0.80;13.50;;;;;;5058479;28;20290;-81
2023/03/28 00:21:22;;;;;;;0.80;0.70;;;0.80;99.90;;;;;;5058340;28;20298;-81
2023/03/28 00:23:51;;;;;;;1.27;1.27;;;0.80;99.90;;;;;;5057185;28;20231;-81
2023/03/28 00:26:20;;;;;;;1.15;1.00;;;0.80;1.00;;;;;;5058411;28;20260;-81
2023/03/28 00:28:47;;;;;;;1.38;1.20;;;0.70;99.90;;;;;;5057688;28;20286;-81
2023/03/28 00:31:14;;;;;;;1.65;1.00;;;0.70;99.90;;;;;;5058760;28;20218;-82
2023/03/28 00:33:42;;;;;;;2.95;1.45;;;0.80;1.00;;;;;;5057963;28;20223;-81
2023/03/28 00:36:10;;;;;;;1.20;1.10;;;0.80;99.90;;;;;;5063233;28;20214;-82
2023/03/28 00:38:37;;;;;;;2.85;2.00;;;0.80;63.60;;;;;;5063864;28;20206;-82
2023/03/28 00:41:08;;;;;;;2.35;1.80;;;0.80;99.90;;;;;;5062688;28;20207;-82
2023/03/28 00:43:39;;;;;;;1.55;1.45;;;0.80;99.90;;;;;;5062767;28;20313;-82
2023/03/28 00:46:11;;;;;;;2.33;1.20;;;0.90;99.90;;;;;;5061544;28;20210;-81
2023/03/28 00:48:40;;;;;;;2.25;1.70;;;1.00;99.90;;;;;;5061866;28;20234;-81
2023/03/28 00:51:07;;;;;;;2.95;1.75;;;1.10;99.90;;;;;;5065056;28;20249;-84
2023/03/28 00:53:35;;;;;;;1.73;1.60;;;1.10;99.90;;;;;;5067211;28;20223;-82
2023/03/28 00:56:06;;;;;;;2.28;1.48;;;1.20;99.90;;;;;;5074835;28;20207;-82
2023/03/28 00:58:35;;;;;;;2.05;1.50;;;1.20;99.90;;;;;;5076889;28;20202;-81
2023/03/28 01:01:04;;;;;;;1.45;1.35;;;1.20;99.90;;;;;;5073671;28;20247;-82
2023/03/28 01:03:34;;;;;;;2.15;1.48;;;1.20;99.90;;;;;;5075780;28;20253;-81
2023/03/28 01:06:03;;;;;;;2.35;1.15;;;1.20;55.10;;;;;;5075152;28;20278;-81
2023/03/28 01:08:32;;;;;;;2.35;1.00;;;1.20;25.00;;;;;;5072725;28;20215;-82
2023/03/28 01:11:00;;;;;;;2.13;1.00;;;1.20;99.90;;;;;;5068081;28;20203;-82
2023/03/28 01:13:31;;;;;;;2.30;1.40;;;1.20;99.90;;;;;;5064625;28;20227;-82
2023/03/28 01:15:58;;;;;;;1.73;1.10;;;1.20;99.90;;;;;;5064410;28;20187;-82
2023/03/28 01:18:29;;;;;;;1.45;1.35;;;1.20;99.90;;;;;;5062595;28;20208;-82
2023/03/28 01:21:22;;;;;;;4.10;1.70;;;0.90;1.00;;;;;;5062018;28;20207;-82
2023/03/28 01:24:21;;;;;;;2.20;1.52;;;1.20;99.90;;;;;;5064645;28;20228;-82
2023/03/28 01:26:52;;;;;;;2.30;1.45;;;1.20;99.90;;;;;;5072401;28;20667;-82
2023/03/28 01:30:00;;;;;;;2.00;1.45;;;1.20;99.90;;;;;;5073318;28;20188;-81
2023/03/28 01:32:58;;;;;;;1.10;1.00;;;1.20;99.90;;;;;;5062900;28;20230;-81
2023/03/28 01:35:55;;;;;;;3.20;1.38;;;1.20;99.90;;;;;;5062367;28;20207;-82
2023/03/28 01:38:29;;;;;;;3.92;1.38;;;1.20;1.00;;;;;;5061477;28;20266;-82
2023/03/28 01:41:03;;;;;;;2.70;1.45;;;1.20;99.90;;;;;;5062005;28;20196;-81
2023/03/28 01:43:38;;;;;;;1.50;1.20;;;1.20;99.90;;;;;;5062285;28;20249;-82
2023/03/28 01:46:13;;;;;;;3.60;1.30;;;1.30;99.90;;;;;;5061440;28;20255;-82
2023/03/28 01:48:49;;;;;;;4.05;1.50;;;1.40;99.90;;;;;;5062311;28;20614;-82
2023/03/28 01:51:24;;;;;;;7.18;1.70;;;1.50;99.90;;;;;;5062011;28;20195;-81
2023/03/28 01:54:00;;;;;;;3.40;1.42;;;1.50;99.90;;;;;;5061136;28;20222;-81
2023/03/28 01:56:34;;;;;;;4.18;1.75;;;1.50;99.90;;;;;;5061367;28;20188;-81
2023/03/28 01:59:07;;;;;;;3.38;1.50;;;1.50;99.90;;;;;;5063130;28;20190;-81
2023/03/28 02:01:39;;;;;;;1.85;1.33;;;1.80;99.90;;;;;;5065667;28;20195;-82
2023/03/28 02:04:11;;;;;;;9.55;1.77;;;1.60;83.20;;;;;;5061573;28;20203;-82
2023/03/28 02:06:39;;;;;;;1.60;1.50;;;1.50;34.80;;;;;;5061182;28;20192;-82
2023/03/28 02:09:10;;;;;;;2.03;1.60;;;1.60;99.90;;;;;;5061689;28;20299;-82
2023/03/28 02:11:38;;;;;;;7.30;2.05;;;1.50;99.90;;;;;;5070641;28;20303;-82
2023/03/28 02:14:09;;;;;;;2.55;1.83;;;1.40;99.90;;;;;;5077451;28;20231;-81
2023/03/28 02:16:40;;;;;;;1.30;1.17;;;1.10;99.90;;;;;;5076856;28;20253;-81
2023/03/28 02:19:08;;;;;;;10.73;1.50;;;1.20;99.90;;;;;;5076153;28;20195;-81
2023/03/28 02:21:40;;;;;;;1.60;1.50;;;1.00;99.90;;;;;;5068686;28;20203;-81
2023/03/28 02:24:12;;;;;;;2.35;2.15;;;0.90;99.90;;;;;;5064789;28;20204;-82
2023/03/28 02:26:39;;;;;;;2.92;1.50;;;0.90;99.90;;;;;;5066908;28;20188;-82
2023/03/28 02:29:08;;;;;;;2.78;1.50;;;1.00;99.90;;;;;;5069686;28;20230;-82
2023/03/28 02:31:35;;;;;;;1.83;1.73;;;1.10;1.00;;;;;;5068900;28;20207;-83
2023/03/28 02:34:03;;;;;;;8.20;1.90;;;1.10;1.00;;;;;;5068203;28;20234;-82
2023/03/28 02:36:35;;;;;;;3.25;1.92;;;0.90;1.00;;;;;;5066386;28;20207;-82
2023/03/28 02:39:38;;;;;;;2.17;1.60;;;1.00;1.00;;;;;;5063744;28;20187;-82
2023/03/28 02:42:25;;;;;;;6.65;1.95;;;0.90;99.90;;;;;;5065112;28;20597;-82
2023/03/28 02:45:05;;;;;;;3.05;1.55;;;0.90;99.90;;;;;;5062897;28;20238;-82
2023/03/28 02:47:37;;;;;;;3.20;1.95;;;0.80;99.90;;;;;;5061861;28;20187;-82
2023/03/28 02:50:17;;;;;;;1.90;1.50;;;0.80;99.90;;;;;;5060874;28;20723;-82
2023/03/28 02:52:50;;;;;;;2.30;1.70;;;0.80;54.20;;;;;;5074377;28;20253;-81
2023/03/28 02:55:25;;;;;;;2.75;1.42;;;0.80;1.00;;;;;;5076342;28;20230;-81
2023/03/28 02:57:55;;;;;;;4.13;1.67;;;0.80;1.00;;;;;;5068895;28;20190;-82
2023/03/28 03:00:23;;;;;;;1.90;1.35;;;0.90;1.00;;;;;;5061102;28;20564;-83
2023/03/28 03:02:51;;;;;;;1.55;1.45;;;0.90;1.00;;;;;;5060830;28;20286;-81
2023/03/28 03:05:20;;;;;;;3.65;1.90;;;0.90;1.00;;;;;;5059918;28;20219;-81
2023/03/28 03:07:47;;;;;;;2.97;1.38;;;1.00;1.00;;;;;;5060305;28;20208;-83
2023/03/28 03:10:15;;;;;;;1.80;1.70;;;1.00;1.00;;;;;;5066956;28;20569;-81
2023/03/28 03:12:45;;;;;;;1.90;1.80;;;0.90;1.00;;;;;;5063620;28;20227;-80
2023/03/28 03:15:15;;;;;;;3.70;1.27;;;1.00;1.40;;;;;;5061588;28;20485;-81
2023/03/28 03:17:44;;;;;;;2.15;1.50;;;1.00;1.00;;;;;;5060582;28;20184;-80
2023/03/28 03:20:11;;;;;;;2.35;1.80;;;1.10;99.90;;;;;;5063918;28;20229;-82
2023/03/28 03:22:38;;;;;;;1.55;1.17;;;1.10;99.90;;;;;;5062006;28;20231;-82
2023/03/28 03:25:08;;;;;;;3.40;1.63;;;1.10;4.50;;;;;;5063467;28;20290;-82
2023/03/28 03:27:37;;;;;;;1.88;1.40;;;1.10;1.00;;;;;;5064461;28;20306;-82
2023/03/28 03:30:07;;;;;;;3.00;1.77;;;1.10;99.90;;;;;;5064676;28;20202;-83
2023/03/28 03:32:33;;;;;;;3.35;1.80;;;1.10;99.90;;;;;;5065564;28;20227;-83
2023/03/28 03:35:00;;;;;;;1.70;1.60;;;1.20;99.90;;;;;;5068434;28;20195;-83
2023/03/28 03:37:27;;;;;;;6.22;2.00;;;1.10;99.90;;;;;;5070077;28;20204;-82
2023/03/28 03:39:54;;;;;;;3.20;2.15;;;1.10;99.90;;;;;;5068028;28;20233;-84
2023/03/28 03:42:21;;;;;;;1.83;1.67;;;0.80;1.00;;;;;;5062620;28;20233;-82
2023/03/28 03:44:48;;;;;;;1.70;1.60;;;1.10;1.00;;;;;;5061604;28;20588;-83
2023/03/28 03:47:18;;;;;;;2.13;2.03;;;1.10;1.00;;;;;;5062943;28;20239;-83
2023/03/28 03:49:45;;;;;;;2.33;2.05;;;1.10;1.00;;;;;;5079116;28;20200;-81
2023/03/28 03:52:12;;;;;;;4.00;2.03;;;1.10;1.00;;;;;;5073947;28;20242;-82
2023/03/28 03:54:38;;;;;;;3.75;2.40;;;1.10;1.00;;;;;;5060433;28;20200;-82
2023/03/28 03:57:05;;;;;;;8.70;1.90;;;1.10;99.90;;;;;;5066972;28;20275;-81
2023/03/28 03:59:32;;;;;;;5.18;2.38;;;1.10;99.90;;;;;;5072710;28;20231;-82
2023/03/28 04:01:59;;;;;;;4.20;2.47;;;1.00;74.00;;;;;;5072031;28;20286;-82
2023/03/28 04:04:27;;;;;;;14.30;2.58;;;1.10;99.90;;;;;;5066114;28;20219;-82
2023/03/28 04:06:56;;;;;;;1.92;1.73;;;1.00;99.90;;;;;;5071743;28;20207;-82
2023/03/28 04:09:25;;;;;;;10.80;2.65;;;1.00;95.20;;;;;;5072559;28;20210;-82
2023/03/28 04:11:52;;;;;;;3.03;2.10;;;1.00;99.90;;;;;;5066851;28;20291;-81
2023/03/28 04:14:19;;;;;;;2.75;1.88;;;1.30;99.90;;;;;;5063454;28;20203;-81
2023/03/28 04:16:49;;;;;;;2.60;1.70;;;1.00;99.90;;;;;;5062421;28;20263;-81
2023/03/28 04:19:17;;;;;;;1.73;1.48;;;1.10;99.90;;;;;;5064461;28;20637;-82
2023/03/28 04:21:47;;;;;;;5.30;1.40;;;1.00;99.90;;;;;;5065855;28;20210;-82
2023/03/28 04:24:15;;;;;;;2.20;1.85;;;1.70;99.90;;;;;;5067006;28;20225;-81
2023/03/28 04:26:42;;;;;;;4.50;1.90;;;0.90;99.90;;;;;;5067048;28;20202;-82
2023/03/28 04:29:10;;;;;;;4.55;2.38;;;0.80;99.90;;;;;;5067771;28;20229;-82
2023/03/28 04:31:38;;;;;;;3.55;2.10;;;0.40;99.90;;;;;;5062500;28;20672;-82
2023/03/28 04:34:05;;;;;;;2.55;1.85;;;0.80;99.90;;;;;;5059451;28;20216;-82
2023/03/28 04:36:33;;;;;;;4.22;2.20;;;1.10;99.90;;;;;;5063986;28;20239;-82
2023/03/28 04:39:02;;;;;;;3.70;2.38;;;0.80;99.90;;;;;;5073740;28;20286;-81
2023/03/28 04:41:30;;;;;;;5.10;2.63;;;1.10;1.00;;;;;;5074440;28;20199;-81
2023/03/28 04:43:57;;;;;;;7.25;2.13;;;0.80;1.00;;;;;;5064146;28;20199;-81
2023/03/28 04:46:24;;;;;;;3.85;1.80;;;0.90;1.00;;;;;;5063187;28;20203;-82
2023/03/28 04:48:51;;;;;;;4.20;1.77;;;0.70;99.90;;;;;;5063176;28;20199;-82
2023/03/28 04:51:18;;;;;;;2.40;2.22;;;0.70;99.90;;;;;;5061607;28;20203;-82
2023/03/28 04:53:45;;;;;;;4.68;1.83;;;0.70;99.90;;;;;;5061554;28;20227;-82
2023/03/28 04:56:13;;;;;;;5.82;1.95;;;0.70;99.90;;;;;;5059825;28;20286;-82
2023/03/28 04:58:41;;;;;;;1.90;1.80;;;0.80;99.90;;;;;;5072082;28;20236;-82
2023/03/28 05:01:09;;;;;;;1.85;1.75;;;0.70;99.90;;;;;;5074739;28;20205;-82
2023/03/28 05:03:36;;;;;;;2.60;1.90;;;0.80;99.90;;;;;;5070576;28;20263;-82
2023/03/28 05:06:04;;;;;;;2.80;1.80;;;;;;;;;;5058533;28;20832;-82
2023/03/28 05:08:31;;;;;;;3.03;1.60;;;0.80;99.90;;;;;;5059848;28;20215;-82
2023/03/28 05:10:58;;;;;;;2.30;2.10;;;0.90;99.30;;;;;;5058585;28;20207;-81
2023/03/28 05:13:27;;;;;;;2.67;1.77;;;0.80;1.00;;;;;;5058164;28;20246;-81
2023/03/28 05:15:53;;;;;;;3.30;2.05;;;0.90;43.20;;;;;;5058151;28;20201;-81
2023/03/28 05:18:20;;;;;;;6.18;3.75;;;1.00;99.90;;;;;;5059273;28;20210;-82
2023/03/28 05:20:47;;;;;;;4.63;3.65;;;0.90;1.00;;;;;;5059125;28;20733;-81
2023/03/28 05:23:14;;;;;;;13.75;3.90;;;0.90;1.00;;;;;;5064474;28;20231;-82
2023/03/28 05:25:41;;;;;;;6.97;2.55;;;1.00;1.00;;;;;;5073519;28;20239;-81
2023/03/28 05:28:08;;;;;;;9.90;2.70;;;1.10;1.00;;;;;;5074667;28;20208;-81
2023/03/28 05:30:36;;;;;;;3.60;2.25;;;1.40;99.90;;;;;;5074325;28;20255;-81
2023/03/28 05:33:03;;;;;;;4.00;1.83;;;1.20;99.90;;;;;;5072008;28;20250;-81
2023/03/28 05:35:30;;;;;;;8.98;3.60;;;1.20;99.90;;;;;;5073418;28;20264;-81
2023/03/28 05:37:57;;;;;;;7.10;3.05;;;0.40;99.90;;;;;;5071226;28;20291;-81
2023/03/28 05:40:24;;;;;;;2.13;1.85;;;1.00;99.90;;;;;;5066579;28;20230;-81
2023/03/28 05:42:51;;;;;;;5.93;1.80;;;0.60;1.00;;;;;;5062858;28;20578;-81
2023/03/28 05:45:17;;;;;;;2.65;1.50;;;0.90;99.90;;;;;;5077157;28;20222;-81
2023/03/28 05:47:46;;;;;;;1.25;1.15;;;1.10;99.90;;;;;;5078543;28;20694;-81
2023/03/28 05:50:12;;;;;;;3.60;1.95;;;0.80;99.90;;;;;;5069028;28;20293;-82
2023/03/28 05:52:39;;;;;;;3.40;1.85;;;0.80;1.00;;;;;;5064098;28;20223;-81
2023/03/28 05:55:07;;;;;;;3.20;1.65;;;1.70;99.90;;;;;;5069575;28;20263;-82
2023/03/28 05:57:34;;;;;;;2.75;1.70;;;0.90;1.00;;;;;;5064844;28;20271;-81
2023/03/28 06:00:02;;;;;;;2.63;1.35;;;1.00;1.00;;;;;;5062016;28;20203;-81
2023/03/28 06:02:29;;;;;;;2.53;1.60;;;0.90;1.00;;;;;;5060938;28;20644;-80
2023/03/28 06:04:58;;;;;;;3.92;1.83;;;0.90;99.90;;;;;;5060596;28;20219;-81
2023/03/28 06:07:25;;;;;;;2.38;1.60;;;0.90;1.00;;;;;;5061276;28;20681;-82
2023/03/28 06:09:52;;;;;;;4.07;2.05;;;1.00;1.00;;;;;;5061028;28;20262;-81
2023/03/28 06:12:19;;;;;;;3.58;1.88;;;1.10;1.00;;;;;;5060972;28;20249;-81
2023/03/28 06:14:46;;;;;;;2.78;1.63;;;0.90;1.00;;;;;;5061493;28;20290;-82
2023/03/28 06:17:13;;;;;;;3.33;1.90;;;1.10;1.00;;;;;;5060566;28;20199;-81
2023/03/28 06:19:41;;;;;;;3.92;2.28;;;1.50;1.00;;;;;;5062134;28;20231;-81
2023/03/28 06:22:09;;;;;;;4.18;2.47;;;1.30;1.00;;;;;;5061160;28;20679;-82
2023/03/28 06:24:36;;;;;;;6.70;2.63;;;1.30;99.90;;;;;;5063840;28;20704;-82
2023/03/28 06:27:03;;;;;;;4.50;2.30;;;1.30;98.10;;;;;;5070411;28;20233;-81
2023/03/28 06:29:30;;;;;;;4.97;3.47;;;1.60;1.00;;;;;;5078624;28;20244;-81
2023/03/28 06:31:57;;;;;;;13.45;3.20;;;1.40;99.90;;;;;;5078053;28;20239;-81
2023/03/28 06:34:24;;;;;;;7.75;2.40;;;1.50;1.00;;;;;;5068482;28;20295;-82
2023/03/28 06:36:51;;;;;;;2.42;2.22;;;1.50;99.90;;;;;;5067226;28;20199;-82
2023/03/28 06:39:19;;;;;;;2.00;1.48;;;1.40;1.00;;;;;;5073397;28;20210;-81
2023/03/28 06:41:49;;;;;;;2.05;1.95;;;1.60;99.90;;;;;;5073354;28;20207;-82
2023/03/28 06:44:16;;;;;;;3.35;1.90;;;1.30;1.00;;;;;;5064753;28;20191;-82
2023/03/28 06:46:43;;;;;;;6.10;2.15;;;1.40;99.90;;;;;;5065264;28;20223;-81
2023/03/28 06:49:10;;;;;;;2.45;1.73;;;1.50;99.90;;;;;;5066430;28;20214;-82
2023/03/28 06:51:37;;;;;;;6.00;2.40;;;1.10;1.00;;;;;;5067268;28;20207;-82
2023/03/28 06:54:04;;;;;;;3.67;2.35;;;1.60;99.90;;;;;;5068790;28;20199;-80
2023/03/28 06:56:32;;;;;;;3.03;2.05;;;1.60;99.90;;;;;;5071645;28;20222;-82
2023/03/28 06:58:59;;;;;;;1.98;1.73;;;1.60;1.00;;;;;;5070341;28;20234;-82
2023/03/28 07:01:26;;;;;;;6.70;2.03;;;1.70;99.90;;;;;;5070344;28;20207;-81
2023/03/28 07:03:53;;;;;;;4.65;2.47;;;1.70;99.90;;;;;;5072945;28;20199;-81
2023/03/28 07:06:20;;;;;;;5.35;1.83;;;1.70;1.00;;;;;;5075848;28;20231;-81
2023/03/28 07:08:47;;;;;;;3.25;2.38;;;1.80;99.90;;;;;;5077680;28;20205;-81
2023/03/28 07:11:13;;;;;;;4.85;1.60;;;1.90;1.00;;;;;;5065982;28;20646;-82
2023/03/28 07:13:42;;;;;;;3.17;1.83;;;1.90;99.90;;;;;;5059855;28;20270;-82
2023/03/28 07:16:12;;;;;;;2.17;1.70;;;1.90;1.00;;;;;;5060230;28;20211;-82
2023/03/28 07:18:40;;;;;;;3.20;1.83;;;2.10;1.00;;;;;;5059472;28;20196;-83
2023/03/28 07:21:07;;;;;;;4.35;2.20;;;2.00;42.90;;;;;;5060659;28;20246;-81
2023/03/28 07:23:34;;;;;;;2.80;2.00;;;2.10;99.90;;;;;;5056700;22;20247;-81
2023/03/28 07:26:01;;;;;;;6.70;2.40;;;2.30;99.90;;;;;;5021398;28;20315;-81
2023/03/28 07:28:28;;;;;;;2.97;1.90;;;2.30;99.90;;;;;;5021583;28;20205;-81
2023/03/28 07:30:57;;;;;;;3.45;1.70;;;2.40;93.10;;;;;;5020933;28;20208;-81
2023/03/28 07:33:24;;;;;;;6.57;1.65;;;2.40;1.00;;;;;;5021499;28;20711;-81
2023/03/28 07:35:51;;;;;;;4.10;1.92;;;2.40;1.00;;;;;;5021820;28;20579;-81
2023/03/28 07:38:18;;;;;;;3.75;1.70;;;2.50;99.90;;;;;;5021703;28;20742;-80
2023/03/28 07:40:45;;;;;;;1.80;1.70;;;2.60;99.90;;;;;;5021203;28;20204;-82
2023/03/28 07:43:12;;;;;;;1.30;1.20;;;2.30;99.90;;;;;;5021658;28;20235;-81
2023/03/28 07:45:39;;;;;;;6.18;1.65;;;2.50;1.00;;;;;;5021817;28;20227;-80
2023/03/28 07:48:07;;;;;;;2.80;1.50;;;2.50;1.00;;;;;;5020821;28;20681;-82
2023/03/28 07:50:35;;;;;;;2.55;1.77;;;3.00;99.90;;;;;;5020695;28;20237;-81
2023/03/28 07:53:02;;;;;;;4.50;1.70;;;2.70;1.00;;;;;;5020232;28;20228;-82
2023/03/28 07:55:29;;;;;;;2.70;2.30;;;2.70;1.00;;;;;;5020744;28;20264;-80
2023/03/28 07:57:56;;;;;;;1.75;1.65;;;3.00;99.90;;;;;;5020771;28;20628;-82
2023/03/28 08:00:23;;;;;;;5.90;2.47;;;2.90;1.00;;;;;;5025714;28;20288;-81
2023/03/28 08:02:50;;;;;;;4.05;2.40;;;3.00;1.00;;;;;;5021151;28;20667;-80
2023/03/28 08:05:20;;;;;;;3.25;1.60;;;2.90;1.00;;;;;;5020580;28;20224;-81
2023/03/28 08:07:52;;;;;;;3.00;1.80;;;3.00;1.00;;;;;;5021194;28;20240;-82
2023/03/28 08:10:19;;;;;;;2.72;1.73;;;3.20;1.00;;;;;;5022301;28;20201;-82
2023/03/28 08:12:46;;;;;;;1.98;1.40;;;3.20;1.00;;;;;;5021550;28;20226;-82
2023/03/28 08:15:13;;;;;;;1.73;1.35;;;3.40;1.00;;;;;;5020877;28;20208;-81
2023/03/28 08:17:40;;;;;;;1.40;1.30;;;3.30;1.00;;;;;;5020865;28;20251;-82
2023/03/28 08:20:10;;;;;;;1.60;1.50;;;3.10;1.00;;;;;;5021679;28;20571;-80
2023/03/28 08:22:38;;;;;;;3.78;1.50;;;3.40;1.00;;;;;;5021112;28;20236;-82
2023/03/28 08:25:06;;;;;;;5.40;1.48;;;3.40;1.00;;;;;;5021077;28;20667;-82
2023/03/28 08:27:34;;;;;;;2.90;1.90;;;3.50;1.00;;;;;;5021280;28;20209;-81
2023/03/28 08:30:01;;;;;;;1.95;1.58;;;3.70;1.00;;;;;;5019325;28;20268;-81
2023/03/28 08:32:30;;;;;;;1.80;1.50;;;3.70;1.00;;;;;;5020132;28;20313;-81
2023/03/28 08:35:01;;;;;;;13.95;2.20;;;3.80;1.00;;;;;;5020756;28;20269;-80
2023/03/28 08:37:28;;;;;;;1.70;1.60;;;3.70;1.00;;;;;;5021186;28;20205;-81
2023/03/28 08:39:57;;;;;;;1.17;1.10;;;3.70;1.00;;;;;;5021223;28;20273;-81
2023/03/28 08:42:47;;;;;;;3.35;1.63;;;3.70;1.00;;;;;;5020734;28;20225;-81
2023/03/28 08:45:28;;;;;;;4.03;1.40;;;3.80;1.00;;;;;;5020367;28;20205;-80
2023/03/28 08:48:13;;;;;;;3.63;1.25;;;3.90;1.00;;;;;;5021658;28;20628;-82
2023/03/28 08:50:44;;;;;;;4.10;2.05;;;3.90;1.00;;;;;;5023451;28;20200;-80
2023/03/28 08:53:19;;;;;;;13.93;2.28;;;3.80;1.00;;;;;;5026288;28;20225;-81
2023/03/28 08:55:49;;;;;;;7.32;1.88;;;4.00;1.00;;;;;;5025473;28;20564;-82
2023/03/28 08:58:20;;;;;;;1.80;1.55;;;4.20;1.00;;;;;;5024946;28;20198;-81
2023/03/28 09:00:48;;;;;;;1.50;1.40;;;4.10;99.90;;;;;;5026216;28;20193;-83
2023/03/28 09:03:18;;;;;;;1.25;1.10;;;4.20;1.00;;;;;;5028474;28;20668;-82
2023/03/28 09:05:49;;;;;;;3.10;1.23;;;4.40;1.00;;;;;;5024546;28;20223;-80
2023/03/28 09:08:40;;;;;;;1.73;1.38;;;4.50;1.00;;;;;;5025801;28;20224;-80
2023/03/28 09:11:18;;;;;;;1.33;1.23;;;4.40;99.90;;;;;;5037964;28;20214;-79
2023/03/28 09:13:56;;;;;;;2.45;1.23;;;4.30;99.90;;;;;;5037538;28;20226;-79
2023/03/28 09:16:34;;;;;;;4.50;1.63;;;4.30;1.00;;;;;;5039553;28;20242;-80
2023/03/28 09:19:11;;;;;;;2.95;1.55;;;4.20;1.00;;;;;;5039662;28;20250;-79
2023/03/28 09:21:47;;;;;;;3.65;1.30;;;4.10;1.00;;;;;;5039085;28;20197;-82
2023/03/28 09:24:27;;;;;;;1.42;1.30;;;4.00;99.90;;;;;;5038267;28;20236;-83
2023/03/28 09:27:05;;;;;;;31.85;3.92;;;4.10;99.90;;;;;;5034783;28;20219;-81
2023/03/28 09:29:34;;;;;;;4.35;1.38;;;4.10;99.90;;;;;;5028593;28;20193;-80
2023/03/28 09:32:04;;;;;;;2.65;1.60;;;3.70;1.00;;;;;;5026261;28;20210;-80
2023/03/28 09:34:38;;;;;;;3.40;1.63;;;4.40;99.90;;;;;;5029907;28;20252;-81
2023/03/28 09:37:16;;;;;;;1.73;1.20;;;4.20;1.00;;;;;;5029956;28;20560;-79
2023/03/28 09:39:50;;;;;;;1.33;0.90;;;4.20;99.90;;;;;;5026352;28;20209;-81
2023/03/28 09:42:27;;;;;;;1.95;1.85;;;4.00;99.90;;;;;;5024813;28;20248;-81
2023/03/28 09:45:02;;;;;;;1.67;1.00;;;4.00;99.90;;;;;;5023703;28;20216;-80
2023/03/28 09:47:29;;;;;;;2.00;1.10;;;4.20;99.90;;;;;;5024510;28;20233;-81
2023/03/28 09:49:57;;;;;;;7.78;1.50;;;4.20;99.90;;;;;;5023576;28;20213;-82
2023/03/28 09:52:24;;;;;;;1.77;1.25;;;4.60;99.90;;;;;;5022233;28;20225;-81
2023/03/28 09:54:51;;;;;;;2.45;1.25;;;4.50;99.90;;;;;;5022151;28;20219;-81
2023/03/28 09:57:19;;;;;;;2.47;1.33;;;4.60;1.00;;;;;;5027080;28;20206;-81
2023/03/28 09:59:46;;;;;;;2.20;1.08;;;4.60;99.90;;;;;;5029552;28;20269;-81
2023/03/28 10:02:27;;;;;;;1.38;1.27;;;4.40;99.90;;;;;;5028126;28;20731;-81
2023/03/28 10:04:54;;;;;;;1.42;1.33;;;4.60;99.90;;;;;;5024883;28;20193;-81
2023/03/28 10:07:32;;;;;;;4.45;1.90;;;4.50;99.90;;;;;;5025829;28;20591;-81
2023/03/28 10:10:11;;;;;;;1.20;1.10;;;4.80;99.90;;;;;;5025753;28;20249;-81
2023/03/28 10:12:42;;;;;;;1.95;1.05;;;5.10;99.90;;;;;;5029820;28;20232;-81
2023/03/28 10:15:30;;;;;;;2.58;1.98;;;5.30;99.90;;;;;;5024352;28;20527;-82
2023/03/28 10:18:00;;;;;;;2.15;1.10;;;5.20;99.90;;;;;;5022246;28;20597;-81
2023/03/28 10:20:27;;;;;;;1.70;1.35;;;5.50;1.00;;;;;;5022918;28;20199;-82
2023/03/28 10:22:56;;;;;;;2.25;1.65;;;5.30;99.90;;;;;;5022390;28;20237;-82
2023/03/28 10:25:35;;;;;;;1.52;1.00;;;5.30;99.90;;;;;;5022860;28;20204;-81
2023/03/28 10:28:06;;;;;;;1.95;1.50;;;5.20;99.90;;;;;;5026197;28;20214;-82
2023/03/28 10:30:34;;;;;;;1.95;1.15;;;5.40;99.90;;;;;;5026030;28;20287;-81
2023/03/28 10:33:23;;;;;;;1.25;1.15;;;5.40;99.90;;;;;;5028824;28;20234;-80
2023/03/28 10:35:57;;;;;;;3.85;1.55;;;5.50;99.90;;;;;;5026967;28;20197;-81
2023/03/28 10:38:26;;;;;;;1.30;1.20;;;6.00;1.00;;;;;;5024499;28;20201;-81
2023/03/28 10:41:00;;;;;;;3.03;1.00;;;6.00;1.00;;;;;;5023577;28;20216;-80
2023/03/28 10:43:35;;;;;;;1.10;1.00;;;5.80;99.90;;;;;;5022509;28;20225;-80
2023/03/28 10:46:05;;;;;;;1.80;1.08;;;4.90;1.00;;;;;;5023202;28;20194;-80
2023/03/28 10:48:35;;;;;;;1.38;0.98;;;4.70;99.90;;;;;;5026760;28;20384;-79
2023/03/28 10:51:07;;;;;;;1.30;1.20;;;5.00;1.00;;;;;;5028412;28;20225;-80
2023/03/28 10:53:59;;;;;;;1.50;1.20;;;4.80;99.90;;;;;;5024816;28;20271;-81
2023/03/28 10:56:32;;;;;;;1.40;1.30;;;5.10;1.00;;;;;;5024631;28;20221;-81
2023/03/28 10:59:16;;;;;;;1.52;1.38;;;4.90;99.90;;;;;;5024163;28;20194;-81
2023/03/28 11:01:57;;;;;;;2.17;1.23;;;5.00;99.90;;;;;;5023577;28;20185;-80
2023/03/28 11:04:44;;;;;;;0.98;0.98;;;5.00;99.90;;;;;;5023323;28;20247;-81
2023/03/28 11:07:17;;;;;;;1.05;1.02;;;4.90;99.90;;;;;;5023634;28;20214;-79
2023/03/28 11:09:50;;;;;;;2.75;1.30;;;5.10;99.90;;;;;;5023252;28;20193;-82
2023/03/28 11:12:32;;;;;;;3.05;1.20;;;5.40;99.90;;;;;;5023315;28;20230;-80
2023/03/28 11:15:10;;;;;;;2.10;1.35;;;5.80;99.90;;;;;;5024338;28;20193;-80
2023/03/28 11:17:47;;;;;;;2.80;1.33;;;6.10;1.00;;;;;;5023374;28;20198;-81
2023/03/28 11:20:27;;;;;;;1.42;1.20;;;6.20;99.90;;;;;;5023237;28;20217;-80
2023/03/28 11:23:09;;;;;;;1.20;1.10;;;6.20;99.90;;;;;;5023222;28;20238;-80
2023/03/28 11:25:43;;;;;;;2.65;1.05;;;6.00;99.90;;;;;;5023313;28;20181;-81
2023/03/28 11:28:18;;;;;;;2.75;1.60;;;5.90;1.00;;;;;;5022500;28;20221;-80
2023/03/28 11:30:51;;;;;;;1.90;1.40;;;6.10;99.90;;;;;;5022385;28;20645;-81
2023/03/28 11:33:21;;;;;;;1.40;1.30;;;6.20;99.90;;;;;;5022038;28;20228;-81
2023/03/28 11:35:52;;;;;;;0.90;0.90;;;6.30;99.90;;;;;;5022038;28;20242;-80
2023/03/28 11:38:24;;;;;;;1.30;1.20;;;6.40;99.90;;;;;;5021236;28;20277;-80
2023/03/28 11:40:55;;;;;;;3.63;1.23;;;6.40;1.00;;;;;;5021717;28;20194;-81
2023/03/28 11:43:29;;;;;;;1.10;1.00;;;6.30;99.90;;;;;;5021389;28;20259;-81
2023/03/28 11:46:05;;;;;;;3.72;1.88;;;6.20;99.90;;;;;;5021434;28;20269;-81
2023/03/28 11:48:39;;;;;;;1.70;1.60;;;6.10;1.00;;;;;;5021588;28;20222;-81
2023/03/28 11:51:11;;;;;;;3.63;1.40;;;6.20;99.90;;;;;;5020923;28;20636;-80
2023/03/28 11:53:43;;;;;;;1.10;1.00;;;6.40;99.90;;;;;;5021576;28;20297;-80
2023/03/28 11:56:23;;;;;;;2.35;1.15;;;6.50;99.90;;;;;;5021162;28;20186;-80
2023/03/28 11:58:55;;;;;;;1.70;1.13;;;6.70;99.90;;;;;;5021908;28;20194;-82
2023/03/28 12:01:26;;;;;;;1.70;1.15;;;6.10;1.00;;;;;;5020562;28;20186;-81
2023/03/28 12:04:00;;;;;;;4.03;1.95;;;6.30;99.90;;;;;;5021540;28;20227;-80
2023/03/28 12:06:32;;;;;;;2.40;1.30;;;6.70;99.90;;;;;;5022188;28;20199;-80
2023/03/28 12:09:05;;;;;;;1.42;1.05;;;7.00;99.90;;;;;;5022073;28;20191;-81
2023/03/28 12:11:36;;;;;;;3.65;1.60;;;7.60;1.00;;;;;;5024137;28;20651;-80
2023/03/28 12:14:15;;;;;;;3.53;1.73;;;7.30;99.90;;;;;;5030923;28;20293;-80
2023/03/28 12:16:47;;;;;;;1.48;1.20;;;7.30;99.90;;;;;;5029567;28;20221;-79
2023/03/28 12:19:20;;;;;;;4.75;1.92;;;7.20;99.90;;;;;;5024464;28;20218;-81
2023/03/28 12:21:51;;;;;;;11.55;2.20;;;6.90;1.00;;;;;;5023105;28;20257;-82
2023/03/28 12:24:26;;;;;;;1.00;1.00;;;7.00;99.90;;;;;;5021904;28;20238;-80
2023/03/28 12:27:01;;;;;;;2.97;1.25;;;6.70;99.90;;;;;;5021715;28;20215;-82
2023/03/28 12:29:36;;;;;;;1.20;1.00;;;6.70;1.00;;;;;;5020799;28;20301;-82
2023/03/28 12:32:28;;;;;;;3.15;1.10;;;7.20;1.00;;;;;;5020600;28;20589;-79
2023/03/28 12:35:04;;;;;;;4.93;1.10;;;7.20;99.90;;;;;;5029588;28;20205;-81
2023/03/28 12:37:38;;;;;;;2.08;1.35;;;7.20;1.00;;;;;;5033661;28;20250;-81
2023/03/28 12:40:19;;;;;;;1.20;1.10;;;7.40;99.90;;;;;;5034527;28;20201;-80
2023/03/28 12:42:48;;;;;;;2.28;1.20;;;7.20;99.90;;;;;;5032631;28;20230;-79
2023/03/28 12:45:20;;;;;;;1.10;0.90;;;7.10;99.90;;;;;;5034185;28;20224;-79
2023/03/28 12:47:52;;;;;;;2.40;1.10;;;6.90;99.90;;;;;;5034144;28;20268;-80
2023/03/28 12:50:25;;;;;;;4.03;1.70;;;6.60;99.90;;;;;;5030574;28;20191;-82
2023/03/28 12:52:53;;;;;;;1.08;0.98;;;6.40;99.90;;;;;;5031534;28;20226;-80
2023/03/28 12:55:53;;;;;;;2.30;1.23;;;6.40;99.90;;;;;;5028185;28;20348;-82
2023/03/28 12:58:22;;;;;;;1.10;1.10;;;6.40;99.90;;;;;;4962938;29;20208;-82
2023/03/28 13:00:59;;;;;;;2.85;1.65;;;6.60;99.90;;;;;;4961574;29;20205;-83
2023/03/28 13:03:40;;;;;;;1.58;1.48;;;7.00;99.90;;;;;;4994136;28;20227;-83
2023/03/28 13:06:18;;;;;;;1.50;1.40;;;7.20;1.00;;;;;;5022122;28;20194;-82
2023/03/28 13:09:03;;;;;;;3.35;2.05;;;7.40;99.90;;;;;;5020424;28;20210;-81
2023/03/28 13:11:40;;;;;;;0.88;0.88;;;7.40;99.90;;;;;;5020736;28;20256;-80
2023/03/28 13:14:36;;;;;;;1.40;1.30;;;7.40;99.90;;;;;;5022748;28;20262;-81
2023/03/28 13:17:16;;;;;;;4.55;1.65;;;7.40;99.90;;;;;;5021691;28;20207;-80
2023/03/28 13:19:51;;;;;;;1.38;1.20;;;7.50;99.90;;;;;;5021463;28;20200;-80
2023/03/28 13:22:30;;;;;;;2.30;1.35;;;7.20;1.00;;;;;;5045989;22;20242;-81